createdAt,value
2022-07-28T00:02:07.284Z,0.50
2022-07-28T00:04:34.358Z,0.60
2022-07-28T00:07:01.605Z,0.60
2022-07-28T00:09:28.787Z,0.50
2022-07-28T00:11:55.311Z,0.67
2022-07-28T00:14:22.680Z,0.70
2022-07-28T00:16:49.354Z,0.70
2022-07-28T00:19:16.648Z,0.50
2022-07-28T00:21:43.369Z,0.60
2022-07-28T00:24:10.172Z,0.50
2022-07-28T00:26:37.384Z,0.70
2022-07-28T00:29:04.897Z,0.60
2022-07-28T00:31:31.604Z,0.70
2022-07-28T00:33:58.292Z,0.50
2022-07-28T00:36:25.814Z,0.60
2022-07-28T00:38:52.948Z,0.50
2022-07-28T00:41:20.569Z,0.70
2022-07-28T00:43:49.294Z,0.60
2022-07-28T00:46:18.117Z,0.50
2022-07-28T00:48:48.227Z,0.60
2022-07-28T00:51:18.691Z,0.57
2022-07-28T00:53:45.721Z,0.73
2022-07-28T00:56:12.809Z,0.50
2022-07-28T00:58:40.235Z,0.60
2022-07-28T01:01:09.508Z,0.67
2022-07-28T01:03:41.887Z,0.60
2022-07-28T01:06:26.291Z,0.50
2022-07-28T01:09:10.129Z,0.50
2022-07-28T01:12:05.438Z,0.60
2022-07-28T01:14:44.977Z,0.53
2022-07-28T01:17:25.789Z,0.60
2022-07-28T01:20:06.067Z,0.50
2022-07-28T01:22:38.329Z,0.60
2022-07-28T01:25:51.198Z,0.50
2022-07-28T01:28:23.551Z,0.67
2022-07-28T01:30:54.579Z,0.60
2022-07-28T01:33:44.257Z,0.80
2022-07-28T01:36:15.344Z,0.50
2022-07-28T01:38:43.910Z,0.50
2022-07-28T01:41:14.706Z,0.67
2022-07-28T01:43:45.791Z,0.73
2022-07-28T01:46:14.487Z,0.70
2022-07-28T01:48:43.093Z,0.50
2022-07-28T01:51:12.547Z,0.63
2022-07-28T01:53:40.682Z,0.60
2022-07-28T01:56:08.045Z,0.60
2022-07-28T01:58:37.235Z,0.60
2022-07-28T02:01:05.749Z,0.60
2022-07-28T02:03:34.419Z,0.50
2022-07-28T02:06:04.241Z,0.60
2022-07-28T02:08:33.156Z,0.53
2022-07-28T02:11:18.602Z,0.43
2022-07-28T02:13:48.183Z,0.50
2022-07-28T02:16:17.391Z,0.37
2022-07-28T02:18:45.721Z,0.60
2022-07-28T02:21:13.397Z,0.83
2022-07-28T02:23:43.123Z,0.40
2022-07-28T02:26:12.206Z,0.77
2022-07-28T02:28:43.576Z,0.60
2022-07-28T02:31:20.021Z,0.50
2022-07-28T02:34:00.338Z,0.70
2022-07-28T02:36:32.102Z,0.50
2022-07-28T02:39:07.180Z,0.60
2022-07-28T02:41:38.076Z,0.80
2022-07-28T02:44:12.092Z,0.47
2022-07-28T02:46:44.792Z,0.60
2022-07-28T02:49:20.297Z,0.50
2022-07-28T02:51:49.296Z,0.60
2022-07-28T02:54:17.966Z,0.70
2022-07-28T02:56:53.721Z,0.60
2022-07-28T02:59:21.598Z,0.60
2022-07-28T03:01:49.629Z,0.63
2022-07-28T03:04:17.728Z,0.60
2022-07-28T03:06:44.825Z,0.70
2022-07-28T03:09:11.421Z,0.60
2022-07-28T03:11:52.543Z,0.43
2022-07-28T03:14:19.083Z,0.60
2022-07-28T03:16:45.801Z,0.70
2022-07-28T03:19:12.468Z,0.70
2022-07-28T03:21:41.322Z,0.60
2022-07-28T03:24:10.482Z,0.67
2022-07-28T03:26:43.415Z,0.70
2022-07-28T03:29:11.124Z,0.60
2022-07-28T03:31:40.251Z,0.60
2022-07-28T03:34:07.241Z,0.53
2022-07-28T03:36:42.451Z,0.60
2022-07-28T03:39:11.811Z,0.60
2022-07-28T03:41:42.211Z,0.77
2022-07-28T03:44:10.968Z,0.70
2022-07-28T03:46:44.678Z,0.57
2022-07-28T03:49:11.563Z,0.57
2022-07-28T03:51:38.433Z,0.77
2022-07-28T03:54:05.031Z,0.50
2022-07-28T03:56:32.097Z,0.60
2022-07-28T03:58:58.660Z,0.70
2022-07-28T04:01:25.307Z,0.60
2022-07-28T04:03:51.889Z,0.50
2022-07-28T04:06:18.710Z,0.60
2022-07-28T04:08:45.307Z,0.60
2022-07-28T04:11:12.612Z,0.50
2022-07-28T04:13:39.316Z,0.67
2022-07-28T04:16:07.178Z,0.60
2022-07-28T04:18:34.177Z,0.67
2022-07-28T04:21:00.793Z,0.50
2022-07-28T04:23:28.115Z,0.60
2022-07-28T04:25:55.262Z,0.67
2022-07-28T04:28:22.131Z,0.80
2022-07-28T04:30:48.708Z,0.70
2022-07-28T04:33:15.403Z,0.80
2022-07-28T04:35:42.025Z,0.53
2022-07-28T04:38:08.635Z,0.63
2022-07-28T04:40:35.271Z,0.60
2022-07-28T04:43:03.601Z,0.77
2022-07-28T04:45:30.323Z,0.60
2022-07-28T04:47:56.909Z,0.70
2022-07-28T04:50:23.694Z,0.60
2022-07-28T04:52:58.679Z,0.50
2022-07-28T04:55:25.629Z,0.50
2022-07-28T04:57:52.414Z,0.70
2022-07-28T05:00:19.934Z,0.80
2022-07-28T05:02:49.044Z,0.70
2022-07-28T05:05:15.783Z,0.80
2022-07-28T05:07:42.392Z,0.67
2022-07-28T05:10:11.823Z,0.50
2022-07-28T05:12:38.961Z,0.70
2022-07-28T05:15:06.688Z,1.10
2022-07-28T05:17:33.276Z,0.77
2022-07-28T05:19:59.928Z,0.60
2022-07-28T05:22:26.884Z,0.83
2022-07-28T05:24:53.431Z,0.70
2022-07-28T05:27:20.473Z,0.80
2022-07-28T05:29:48.093Z,0.90
2022-07-28T05:32:16.472Z,0.63
2022-07-28T05:34:44.665Z,0.70
2022-07-28T05:37:11.284Z,0.57
2022-07-28T05:39:37.833Z,0.80
2022-07-28T05:42:04.846Z,0.80
2022-07-28T05:44:37.276Z,0.80
2022-07-28T05:47:04.859Z,0.70
2022-07-28T05:49:31.503Z,0.70
2022-07-28T05:51:58.053Z,1.03
2022-07-28T05:54:25.887Z,0.80
2022-07-28T05:56:52.791Z,0.70
2022-07-28T05:59:19.407Z,0.70
2022-07-28T06:01:46.548Z,0.80
2022-07-28T06:04:29.434Z,0.70
2022-07-28T06:06:56.313Z,0.70
2022-07-28T06:09:22.891Z,0.80
2022-07-28T06:11:52.452Z,0.80
2022-07-28T06:14:19.411Z,0.70
2022-07-28T06:16:50.888Z,0.60
2022-07-28T06:19:18.283Z,0.70
2022-07-28T06:21:44.915Z,0.60
2022-07-28T06:24:11.905Z,0.73
2022-07-28T06:26:44.380Z,0.67
2022-07-28T06:29:11.516Z,0.70
2022-07-28T06:31:38.989Z,0.70
2022-07-28T06:34:05.786Z,0.87
2022-07-28T06:36:32.363Z,0.53
2022-07-28T06:38:58.954Z,0.90
2022-07-28T06:41:25.483Z,0.70
2022-07-28T06:43:52.362Z,0.60
2022-07-28T06:46:19.624Z,0.90
2022-07-28T06:48:46.682Z,0.60
2022-07-28T06:51:15.009Z,0.80
2022-07-28T06:53:41.695Z,0.70
2022-07-28T06:56:10.881Z,0.70
2022-07-28T06:58:40.460Z,0.80
2022-07-28T07:01:07.734Z,0.83
2022-07-28T07:03:34.894Z,0.77
2022-07-28T07:06:01.487Z,0.90
2022-07-28T07:08:28.242Z,0.90
2022-07-28T07:10:55.140Z,1.00
2022-07-28T07:13:21.711Z,1.13
2022-07-28T07:15:48.268Z,1.07
2022-07-28T07:18:14.871Z,1.10
2022-07-28T07:20:41.434Z,0.90
2022-07-28T07:23:08.017Z,0.80
2022-07-28T07:25:34.655Z,0.67
2022-07-28T07:28:01.200Z,0.80
2022-07-28T07:30:27.749Z,0.63
2022-07-28T07:32:54.312Z,0.90
2022-07-28T07:35:20.993Z,0.83
2022-07-28T07:37:47.547Z,0.57
2022-07-28T07:40:14.248Z,0.60
2022-07-28T07:42:40.822Z,0.90
2022-07-28T07:45:07.787Z,0.60
2022-07-28T07:47:34.363Z,0.70
2022-07-28T07:50:04.157Z,0.80
2022-07-28T07:52:31.495Z,1.10
2022-07-28T07:54:58.223Z,0.90
2022-07-28T07:57:24.874Z,0.90
2022-07-28T07:59:51.392Z,0.90
2022-07-28T08:02:17.948Z,1.20
2022-07-28T08:04:44.513Z,0.90
2022-07-28T08:07:11.365Z,0.70
2022-07-28T08:09:38.626Z,0.87
2022-07-28T08:12:05.717Z,1.23
2022-07-28T08:14:32.310Z,1.10
2022-07-28T08:16:59.486Z,1.17
2022-07-28T08:19:26.653Z,1.10
2022-07-28T08:21:53.317Z,1.07
2022-07-28T08:24:31.592Z,0.80
2022-07-28T08:27:03.724Z,1.10
2022-07-28T08:29:30.421Z,0.97
2022-07-28T08:31:57.250Z,1.00
2022-07-28T08:34:31.083Z,1.03
2022-07-28T08:37:02.063Z,1.00
2022-07-28T08:39:29.263Z,1.07
2022-07-28T08:42:19.864Z,1.00
2022-07-28T08:45:05.918Z,1.10
2022-07-28T08:47:45.920Z,1.30
2022-07-28T08:50:24.276Z,1.13
2022-07-28T08:52:52.732Z,1.03
2022-07-28T08:55:32.059Z,1.10
2022-07-28T08:58:00.113Z,1.00
2022-07-28T09:00:27.087Z,1.13
2022-07-28T09:02:54.347Z,1.20
2022-07-28T09:05:22.542Z,0.90
2022-07-28T09:07:54.448Z,1.20
2022-07-28T09:10:21.941Z,1.37
2022-07-28T09:12:48.593Z,0.80
2022-07-28T09:15:15.196Z,1.50
2022-07-28T09:17:43.032Z,1.23
2022-07-28T09:20:11.713Z,1.10
2022-07-28T09:22:55.956Z,1.30
2022-07-28T09:25:22.979Z,1.08
2022-07-28T09:27:51.730Z,1.48
2022-07-28T09:30:31.285Z,1.08
2022-07-28T09:33:41.357Z,1.60
2022-07-28T09:36:14.574Z,1.55
2022-07-28T09:38:41.935Z,1.52
2022-07-28T09:41:08.588Z,1.48
2022-07-28T09:43:35.156Z,1.50
2022-07-28T09:46:18.966Z,1.50
2022-07-28T09:48:48.944Z,1.55
2022-07-28T09:51:28.633Z,1.95
2022-07-28T09:54:10.751Z,1.80
2022-07-28T09:56:46.648Z,2.15
2022-07-28T09:59:15.101Z,2.00
2022-07-28T10:01:56.653Z,1.90
2022-07-28T10:04:38.210Z,2.35
2022-07-28T10:07:07.619Z,2.00
2022-07-28T10:09:34.459Z,2.05
2022-07-28T10:12:23.286Z,2.00
2022-07-28T10:14:52.026Z,2.05
2022-07-28T10:17:29.671Z,2.42
2022-07-28T10:20:05.212Z,2.17
2022-07-28T10:22:34.144Z,1.80
2022-07-28T10:25:05.753Z,2.00
2022-07-28T10:27:32.771Z,1.70
2022-07-28T10:30:01.360Z,2.08
2022-07-28T10:32:31.297Z,1.75
2022-07-28T10:35:04.611Z,1.80
2022-07-28T10:37:32.597Z,1.90
2022-07-28T10:40:10.668Z,1.90
2022-07-28T10:42:39.055Z,2.03
2022-07-28T10:45:07.916Z,1.85
2022-07-28T10:47:35.999Z,1.98
2022-07-28T10:50:03.908Z,1.95
2022-07-28T10:52:46.647Z,1.88
2022-07-28T10:55:23.231Z,1.90
2022-07-28T10:58:36.463Z,2.05
2022-07-28T11:01:06.372Z,2.08
2022-07-28T11:03:38.326Z,1.80
2022-07-28T11:06:23.991Z,1.60
2022-07-28T11:08:56.622Z,1.83
2022-07-28T11:11:59.135Z,2.00
2022-07-28T11:14:39.113Z,2.13
2022-07-28T11:17:10.739Z,2.10
2022-07-28T11:19:55.596Z,2.25
2022-07-28T11:22:32.699Z,2.17
2022-07-28T11:25:00.784Z,2.15
2022-07-28T11:27:50.333Z,2.05
2022-07-28T11:30:26.182Z,2.17
2022-07-28T11:32:55.677Z,2.30
2022-07-28T11:35:24.320Z,1.92
2022-07-28T11:38:03.123Z,2.10
2022-07-28T11:40:30.586Z,2.22
2022-07-28T11:43:22.821Z,2.33
2022-07-28T11:46:10.124Z,1.83
2022-07-28T11:48:40.412Z,2.10
2022-07-28T11:51:07.070Z,1.98
2022-07-28T11:53:45.463Z,2.00
2022-07-28T11:56:23.360Z,2.13
2022-07-28T11:58:57.239Z,2.00
2022-07-28T12:01:23.767Z,2.30
2022-07-28T12:03:55.262Z,2.28
2022-07-28T12:06:35.433Z,2.10
2022-07-28T12:09:03.787Z,2.45
2022-07-28T12:11:40.924Z,2.00
2022-07-28T12:14:13.816Z,2.17
2022-07-28T12:16:42.705Z,2.30
2022-07-28T12:19:10.773Z,2.15
2022-07-28T12:21:46.103Z,2.28
2022-07-28T12:24:29.451Z,2.05
2022-07-28T12:26:57.609Z,2.47
2022-07-28T12:29:24.674Z,2.20
2022-07-28T12:31:59.739Z,2.45
2022-07-28T12:34:30.758Z,2.60
2022-07-28T12:37:02.473Z,2.55
2022-07-28T12:39:30.886Z,2.65
2022-07-28T12:42:08.812Z,2.60
2022-07-28T12:44:37.654Z,2.55
2022-07-28T12:47:06.348Z,2.53
2022-07-28T12:49:33.122Z,2.40
2022-07-28T12:52:17.076Z,2.47
2022-07-28T12:54:53.496Z,2.47
2022-07-28T12:57:50.596Z,2.47
2022-07-28T13:00:23.915Z,2.50
2022-07-28T13:02:53.664Z,2.80
2022-07-28T13:05:56.047Z,2.67
2022-07-28T13:08:24.515Z,2.20
2022-07-28T13:10:56.659Z,2.45
2022-07-28T13:13:24.345Z,2.90
2022-07-28T13:16:17.437Z,2.78
2022-07-28T13:18:47.757Z,2.70
2022-07-28T13:21:15.655Z,2.67
2022-07-28T13:23:43.106Z,2.55
2022-07-28T13:26:09.743Z,2.72
2022-07-28T13:28:36.421Z,2.50
2022-07-28T13:31:03.103Z,2.60
2022-07-28T13:33:29.919Z,2.60
2022-07-28T13:35:56.700Z,2.60
2022-07-28T13:38:23.425Z,2.55
2022-07-28T13:40:50.005Z,2.95
2022-07-28T13:43:16.608Z,2.40
2022-07-28T13:45:43.260Z,2.50
2022-07-28T13:48:09.917Z,2.50
2022-07-28T13:50:36.563Z,2.50
2022-07-28T13:53:03.262Z,2.60
2022-07-28T13:55:29.829Z,2.42
2022-07-28T13:57:56.812Z,2.20
2022-07-28T14:00:23.839Z,2.38
2022-07-28T14:02:51.498Z,2.35
2022-07-28T14:05:18.683Z,2.40
2022-07-28T14:07:48.386Z,2.38
2022-07-28T14:10:18.979Z,2.03
2022-07-28T14:12:46.221Z,2.17
2022-07-28T14:15:13.851Z,2.20
2022-07-28T14:17:43.364Z,2.40
2022-07-28T14:20:14.410Z,2.20
2022-07-28T14:22:42.545Z,2.10
2022-07-28T14:25:09.635Z,2.30
2022-07-28T14:27:36.343Z,2.33
2022-07-28T14:30:04.263Z,2.47
2022-07-28T14:32:31.890Z,2.60
2022-07-28T14:34:58.712Z,2.30
2022-07-28T14:37:26.120Z,2.43
2022-07-28T14:39:52.712Z,2.40
2022-07-28T14:42:19.308Z,2.37
2022-07-28T14:44:45.908Z,2.22
2022-07-28T14:47:12.628Z,2.40
2022-07-28T14:49:58.188Z,2.30
2022-07-28T14:52:27.069Z,2.20
2022-07-28T14:54:57.288Z,2.30
2022-07-28T14:57:24.484Z,2.33
2022-07-28T15:00:14.054Z,2.23
2022-07-28T15:02:41.227Z,2.70
2022-07-28T15:05:08.991Z,2.47
2022-07-28T15:07:36.364Z,2.60
2022-07-28T15:10:04.369Z,2.50
2022-07-28T15:12:31.167Z,2.23
2022-07-28T15:14:57.806Z,2.30
2022-07-28T15:17:24.333Z,2.50
2022-07-28T15:19:50.872Z,2.30
2022-07-28T15:22:17.516Z,2.50
2022-07-28T15:24:45.807Z,2.60
2022-07-28T15:27:12.513Z,2.43
2022-07-28T15:29:39.284Z,2.67
2022-07-28T15:32:06.203Z,2.50
2022-07-28T15:34:37.136Z,3.10
2022-07-28T15:37:03.708Z,2.83
2022-07-28T15:39:30.956Z,2.60
2022-07-28T15:41:58.345Z,2.40
2022-07-28T15:44:26.187Z,2.40
2022-07-28T15:46:53.172Z,2.60
2022-07-28T15:49:19.992Z,2.30
2022-07-28T15:51:46.708Z,2.50
2022-07-28T15:54:14.055Z,2.30
2022-07-28T15:56:41.947Z,2.63
2022-07-28T15:59:09.148Z,2.10
2022-07-28T16:01:36.062Z,2.60
2022-07-28T16:04:02.885Z,2.47
2022-07-28T16:06:48.493Z,2.27
2022-07-28T16:09:15.324Z,2.33
2022-07-28T16:11:42.041Z,2.50
2022-07-28T16:14:08.770Z,2.10
2022-07-28T16:16:35.775Z,2.00
2022-07-28T16:19:02.728Z,2.13
2022-07-28T16:21:29.467Z,1.93
2022-07-28T16:23:56.104Z,1.93
2022-07-28T16:26:22.737Z,2.20
2022-07-28T16:28:49.334Z,1.95
2022-07-28T16:31:16.790Z,1.92
2022-07-28T16:33:43.427Z,2.07
2022-07-28T16:36:10.013Z,2.20
2022-07-28T16:38:36.659Z,2.00
2022-07-28T16:41:03.556Z,2.10
2022-07-28T16:43:31.361Z,2.10
2022-07-28T16:45:58.017Z,2.20
2022-07-28T16:48:24.689Z,2.17
2022-07-28T16:50:51.267Z,2.20
2022-07-28T16:53:17.857Z,2.03
2022-07-28T16:55:46.937Z,2.17
2022-07-28T16:58:14.117Z,1.80
2022-07-28T17:00:40.857Z,2.00
2022-07-28T17:03:07.565Z,2.23
2022-07-28T17:05:37.736Z,2.10
2022-07-28T17:08:04.900Z,2.20
2022-07-28T17:10:31.721Z,1.93
2022-07-28T17:12:58.598Z,1.93
2022-07-28T17:15:25.260Z,2.00
2022-07-28T17:17:52.731Z,2.27
2022-07-28T17:20:20.883Z,1.90
2022-07-28T17:22:47.675Z,2.00
2022-07-28T17:28:01.528Z,2.23
2022-07-28T17:30:29.852Z,2.17
2022-07-28T17:32:58.826Z,1.70
2022-07-28T17:35:31.496Z,2.10
2022-07-28T17:38:01.435Z,2.20
2022-07-28T17:40:28.044Z,2.10
2022-07-28T17:42:54.628Z,2.00
2022-07-28T17:45:21.735Z,2.10
2022-07-28T17:47:48.289Z,2.13
2022-07-28T17:50:15.094Z,2.23
2022-07-28T17:52:42.962Z,1.77
2022-07-28T17:55:29.158Z,2.03
2022-07-28T17:57:57.726Z,2.30
2022-07-28T18:00:24.357Z,2.00
2022-07-28T18:02:51.106Z,1.93
2022-07-28T18:05:17.862Z,1.90
2022-07-28T18:07:51.185Z,1.60
2022-07-28T18:10:24.514Z,1.70
2022-07-28T18:12:51.992Z,2.00
2022-07-28T18:15:18.894Z,2.10
2022-07-28T18:17:54.458Z,1.80
2022-07-28T18:20:22.530Z,2.00
2022-07-28T18:22:49.350Z,1.90
2022-07-28T18:25:15.933Z,2.27
2022-07-28T18:27:42.690Z,1.97
2022-07-28T18:30:10.105Z,1.90
2022-07-28T18:32:36.625Z,2.20
2022-07-28T18:35:03.196Z,1.97
2022-07-28T18:37:30.884Z,2.10
2022-07-28T18:39:57.672Z,2.00
2022-07-28T18:42:24.455Z,2.00
2022-07-28T18:44:51.072Z,1.90
2022-07-28T18:47:17.643Z,1.80
2022-07-28T18:49:44.201Z,2.00
2022-07-28T18:52:10.746Z,2.20
2022-07-28T18:54:37.430Z,1.80
2022-07-28T18:57:04.209Z,1.80
2022-07-28T18:59:30.831Z,1.50
2022-07-28T19:01:57.476Z,1.80
2022-07-28T19:04:24.112Z,1.90
2022-07-28T19:06:51.232Z,2.10
2022-07-28T19:09:18.858Z,1.97
2022-07-28T19:11:46.429Z,1.90
2022-07-28T19:14:15.509Z,1.97
2022-07-28T19:16:42.895Z,2.00
2022-07-28T19:19:09.614Z,2.03
2022-07-28T19:21:36.235Z,2.00
2022-07-28T19:24:03.723Z,1.90
2022-07-28T19:26:30.300Z,2.03
2022-07-28T19:28:57.696Z,2.53
2022-07-28T19:31:25.448Z,2.43
2022-07-28T19:33:52.578Z,1.73
2022-07-28T19:36:19.962Z,2.03
2022-07-28T19:38:46.529Z,1.90
2022-07-28T19:41:13.458Z,1.60
2022-07-28T19:43:40.425Z,1.57
2022-07-28T19:46:07.299Z,2.27
2022-07-28T19:48:34.260Z,3.70
2022-07-28T19:51:01.004Z,2.53
2022-07-28T19:53:32.249Z,2.30
2022-07-28T19:56:01.274Z,2.10
2022-07-28T19:58:28.420Z,1.50
2022-07-28T20:00:55.791Z,1.90
2022-07-28T20:04:01.862Z,1.63
2022-07-28T20:06:10.143Z,1.40
2022-07-28T20:08:36.854Z,1.60
2022-07-28T20:11:03.614Z,1.80
2022-07-28T20:13:30.270Z,1.70
2022-07-28T20:15:56.814Z,1.50
2022-07-28T20:18:23.479Z,1.70
2022-07-28T20:20:50.277Z,1.73
2022-07-28T20:23:16.900Z,1.60
2022-07-28T20:25:45.214Z,1.33
2022-07-28T20:28:12.395Z,1.67
2022-07-28T20:30:39.576Z,1.70
2022-07-28T20:33:07.882Z,1.60
2022-07-28T20:35:34.494Z,1.63
2022-07-28T20:38:01.577Z,1.50
2022-07-28T20:40:28.176Z,1.60
2022-07-28T20:42:54.849Z,1.50
2022-07-28T20:45:21.598Z,1.50
2022-07-28T20:47:48.163Z,1.63
2022-07-28T20:50:15.664Z,1.70
2022-07-28T20:52:42.405Z,1.40
2022-07-28T20:55:11.251Z,1.50
2022-07-28T20:57:37.923Z,1.53
2022-07-28T21:00:06.412Z,1.47
2022-07-28T21:02:33.036Z,1.33
2022-07-28T21:04:59.642Z,1.30
2022-07-28T21:08:05.239Z,1.80
2022-07-28T21:10:13.674Z,1.50
2022-07-28T21:12:40.329Z,1.50
2022-07-28T21:15:08.105Z,1.70
2022-07-28T21:17:34.901Z,1.67
2022-07-28T21:20:01.780Z,1.90
2022-07-28T21:22:28.401Z,1.30
2022-07-28T21:24:55.814Z,1.70
2022-07-28T21:27:23.682Z,1.50
2022-07-28T21:32:17.274Z,1.80
2022-07-28T21:34:43.855Z,1.50
2022-07-28T21:37:11.615Z,1.60
2022-07-28T21:39:39.022Z,1.60
2022-07-28T21:42:08.448Z,1.40
2022-07-28T21:44:36.832Z,1.53
2022-07-28T21:47:03.837Z,1.50
2022-07-28T21:49:31.201Z,1.40
2022-07-28T21:51:57.828Z,1.40
2022-07-28T21:54:24.471Z,1.63
2022-07-28T21:56:51.115Z,1.70
2022-07-28T21:59:17.685Z,1.50
2022-07-28T22:01:44.463Z,1.60
2022-07-28T22:04:11.044Z,1.80
2022-07-28T22:06:37.650Z,1.50
2022-07-28T22:09:04.414Z,1.47
2022-07-28T22:11:31.019Z,1.60
2022-07-28T22:13:57.680Z,1.97
2022-07-28T22:16:24.265Z,1.50
2022-07-28T22:18:50.837Z,1.60
2022-07-28T22:21:17.431Z,1.60
2022-07-28T22:23:44.078Z,1.60
2022-07-28T22:26:10.662Z,1.70
2022-07-28T22:28:37.286Z,1.77
2022-07-28T22:31:08.786Z,1.20
2022-07-28T22:33:38.077Z,1.40
2022-07-28T22:36:08.874Z,1.50
2022-07-28T22:38:35.885Z,1.70
2022-07-28T22:41:02.651Z,1.70
2022-07-28T22:43:31.976Z,1.80
2022-07-28T22:45:58.637Z,1.30
2022-07-28T22:48:25.308Z,1.90
2022-07-28T22:50:52.011Z,1.67
2022-07-28T22:53:18.639Z,1.60
2022-07-28T22:55:45.182Z,1.80
2022-07-28T22:58:11.733Z,1.70
2022-07-28T23:00:38.342Z,1.50
2022-07-28T23:03:05.157Z,1.70
2022-07-28T23:05:32.216Z,1.43
2022-07-28T23:07:59.145Z,1.53
2022-07-28T23:10:26.329Z,1.53
2022-07-28T23:12:55.168Z,1.63
2022-07-28T23:15:25.182Z,1.50
2022-07-28T23:18:10.171Z,1.43
2022-07-28T23:20:38.343Z,1.80
2022-07-28T23:23:04.905Z,1.70
2022-07-28T23:25:31.631Z,1.80
2022-07-28T23:27:58.246Z,1.50
2022-07-28T23:30:24.840Z,1.70
2022-07-28T23:32:52.954Z,1.70
2022-07-28T23:35:19.511Z,1.60
2022-07-28T23:37:46.057Z,1.70
2022-07-28T23:40:13.219Z,1.60
2022-07-28T23:42:39.834Z,1.50
2022-07-28T23:45:06.866Z,1.60
2022-07-28T23:47:34.353Z,1.30
2022-07-28T23:50:02.158Z,1.60
2022-07-28T23:52:29.108Z,1.50
2022-07-28T23:54:55.876Z,1.70
2022-07-28T23:57:22.495Z,1.80
2022-07-28T23:59:49.028Z,1.70
